Time;durP1;ratioP1;P1;durP2;ratioP2;P2;SDS_P1;SDS_P2;PMS_P1;PMS_P2;Temp;Humidity;BMP_temperature;BMP_pressure;BME280_temperature;BME280_humidity;BME280_pressure;Samples;Min_cycle;Max_cycle;Signal;HPM_P1;HPM_P2
2023/08/06 01:20:32;;;;;;;3.90;3.50;;;;;;;15.33;83.13;95953.31;5564954;23;20048;-78
2023/08/06 01:23:00;;;;;;;3.53;3.15;;;;;;;15.34;83.31;95947.81;4902532;29;20076;-78
2023/08/06 01:25:34;;;;;;;3.75;3.20;;;;;;;15.34;83.76;95957.53;4902268;29;20052;-78
2023/08/06 01:28:08;;;;;;;4.13;3.13;;;;;;;15.34;83.96;95953.06;4902407;29;20060;-78
2023/08/06 01:30:40;;;;;;;3.40;3.10;;;;;;;15.38;83.86;95948.16;4902114;29;20489;-78
2023/08/06 01:33:15;;;;;;;4.35;3.33;;;;;;;15.39;84.13;95947.94;4903185;29;20057;-78
2023/08/06 01:35:45;;;;;;;3.97;3.50;;;;;;;15.42;84.13;95941.44;4904151;29;20117;-78
2023/08/06 01:38:13;;;;;;;3.70;3.40;;;;;;;15.42;83.69;95939.59;4903922;29;20061;-78
2023/08/06 01:40:41;;;;;;;3.55;3.25;;;;;;;15.42;83.57;95925.66;4904342;29;20044;-78
2023/08/06 01:43:08;;;;;;;3.58;3.28;;;;;;;15.42;83.58;95938.81;4904506;29;20510;-78
2023/08/06 01:45:36;;;;;;;3.65;3.03;;;;;;;15.45;83.79;95930.44;4904384;29;20056;-78
2023/08/06 01:48:04;;;;;;;5.68;3.30;;;;;;;15.48;84.05;95937.88;4902946;29;20135;-78
2023/08/06 01:50:32;;;;;;;3.50;3.20;;;;;;;15.52;84.40;95930.34;4901052;29;20502;-78
2023/08/06 01:53:01;;;;;;;3.95;3.03;;;;;;;15.55;84.03;95930.69;4898673;29;20083;-78
2023/08/06 01:55:30;;;;;;;3.10;2.90;;;;;;;15.54;84.15;95923.81;4902333;29;20113;-78
2023/08/06 01:57:57;;;;;;;5.05;3.13;;;;;;;15.52;83.58;95920.59;4910077;29;20053;-78
2023/08/06 02:00:25;;;;;;;3.45;3.15;;;;;;;15.49;83.58;95917.66;4919615;29;20060;-78
2023/08/06 02:02:52;;;;;;;4.75;3.50;;;;;;;15.48;83.86;95911.59;4910248;29;20076;-78
2023/08/06 02:05:21;;;;;;;3.80;3.00;;;;;;;15.48;83.86;95914.25;4904083;29;20574;-78
2023/08/06 02:07:49;;;;;;;4.05;3.50;;;;;;;15.47;83.83;95904.75;4903032;29;20052;-78
2023/08/06 02:10:18;;;;;;;6.20;3.03;;;;;;;15.46;84.09;95916.28;4902875;29;20151;-78
2023/08/06 02:12:45;;;;;;;3.67;3.38;;;;;;;15.45;83.64;95904.97;4903265;29;20091;-78
2023/08/06 02:15:13;;;;;;;3.97;2.97;;;;;;;15.44;83.52;95908.63;4903589;29;20139;-78
2023/08/06 02:17:41;;;;;;;3.63;3.17;;;;;;;15.42;83.50;95904.63;4902822;29;20080;-78
2023/08/06 02:20:09;;;;;;;4.93;3.63;;;;;;;15.38;83.83;95898.22;4902899;29;20089;-78
2023/08/06 02:22:37;;;;;;;4.03;3.15;;;;;;;15.35;83.58;95898.66;4903441;29;20566;-78
2023/08/06 02:25:05;;;;;;;3.50;3.20;;;;;;;15.33;83.34;95901.56;4903401;29;20052;-78
2023/08/06 02:27:34;;;;;;;5.85;3.30;;;;;;;15.31;83.14;95892.31;4903380;29;20131;-78
2023/08/06 02:30:03;;;;;;;3.30;2.90;;;;;;;15.29;83.34;95889.09;4903541;29;20049;-78
2023/08/06 02:32:32;;;;;;;3.72;3.10;;;;;;;15.28;83.06;95887.50;4903560;29;20104;-78
2023/08/06 02:34:59;;;;;;;3.70;3.40;;;;;;;15.28;85.00;95883.03;4903375;29;20498;-78
2023/08/06 02:37:27;;;;;;;3.40;3.10;;;;;;;15.34;83.70;95886.56;4903479;29;20053;-78
2023/08/06 02:39:55;;;;;;;3.13;2.35;;;;;;;15.38;83.88;95887.72;4903600;29;20112;-78
2023/08/06 02:42:23;;;;;;;3.55;3.25;;;;;;;15.46;84.89;95882.13;4902715;29;20064;-78
2023/08/06 02:44:54;;;;;;;3.20;2.90;;;;;;;15.51;82.94;95882.22;4903208;29;20169;-78
2023/08/06 02:47:22;;;;;;;2.63;2.43;;;;;;;15.55;82.45;95878.09;4904495;29;20071;-78
2023/08/06 02:49:50;;;;;;;4.07;3.08;;;;;;;15.63;84.23;95885.66;4903548;29;20295;-78
2023/08/06 02:52:18;;;;;;;3.67;2.97;;;;;;;15.68;82.41;95877.06;4903169;29;20052;-78
2023/08/06 02:54:45;;;;;;;3.00;2.28;;;;;;;15.71;81.78;95871.38;4903780;29;20061;-78
2023/08/06 02:57:13;;;;;;;3.38;3.08;;;;;;;15.79;82.90;95870.22;4904119;29;20404;-78
2023/08/06 02:59:40;;;;;;;2.60;2.40;;;;;;;15.81;81.38;95876.03;4904012;29;20052;-79
2023/08/06 03:02:09;;;;;;;2.95;2.75;;;;;;;15.83;81.68;95873.97;4904026;29;20517;-78
2023/08/06 03:04:37;;;;;;;3.63;3.15;;;;;;;15.88;82.00;95862.75;4903919;29;20052;-78
2023/08/06 03:07:05;;;;;;;3.45;2.50;;;;;;;15.90;80.23;95864.13;4903813;29;20055;-78
2023/08/06 03:09:33;;;;;;;2.50;2.30;;;;;;;15.88;79.35;95854.88;4903652;29;20053;-78
2023/08/06 03:12:00;;;;;;;3.72;2.75;;;;;;;15.83;79.54;95859.00;4903634;29;20060;-78
2023/08/06 03:14:28;;;;;;;2.72;2.53;;;;;;;15.81;81.36;95855.00;4903671;29;20057;-78
2023/08/06 03:16:55;;;;;;;2.53;2.30;;;;;;;15.79;80.01;95857.06;4908103;29;20068;-78
2023/08/06 03:19:24;;;;;;;2.65;2.45;;;;;;;15.76;80.53;95860.16;4916073;29;20116;-78
2023/08/06 03:21:52;;;;;;;3.25;2.78;;;;;;;15.75;79.75;95853.31;4914221;29;20077;-78
2023/08/06 03:24:20;;;;;;;2.78;2.58;;;;;;;15.71;79.31;95863.47;4914819;29;20037;-78
2023/08/06 03:26:48;;;;;;;3.28;2.45;;;;;;;15.69;79.38;95852.34;4916604;29;20040;-78
2023/08/06 03:29:15;;;;;;;2.70;2.35;;;;;;;15.72;79.92;95846.69;4917396;29;20048;-78
2023/08/06 03:31:43;;;;;;;2.83;2.63;;;;;;;15.72;79.56;95840.59;4916067;29;20091;-78
2023/08/06 03:34:11;;;;;;;4.72;2.50;;;;;;;15.76;79.27;95832.00;4907057;29;20059;-78
2023/08/06 03:36:39;;;;;;;3.50;2.85;;;;;;;15.80;79.81;95842.88;4907890;29;20491;-78
2023/08/06 03:39:07;;;;;;;2.92;2.05;;;;;;;15.83;78.82;95847.66;4906505;29;20478;-78
2023/08/06 03:41:34;;;;;;;3.83;2.90;;;;;;;15.85;80.82;95846.41;4906344;29;20044;-78
2023/08/06 03:44:03;;;;;;;3.85;2.83;;;;;;;15.92;82.16;95845.47;4906787;29;20056;-78
2023/08/06 03:46:33;;;;;;;2.88;2.35;;;;;;;15.96;81.20;95846.59;4906086;29;20052;-78
2023/08/06 03:49:01;;;;;;;3.03;2.42;;;;;;;15.95;80.08;95845.81;4905320;29;20053;-78
2023/08/06 03:51:29;;;;;;;4.03;2.47;;;;;;;16.00;81.88;95843.25;4905168;29;20518;-78
2023/08/06 03:53:58;;;;;;;3.83;2.25;;;;;;;16.03;79.63;95842.00;4905324;29;20439;-78
2023/08/06 03:56:25;;;;;;;2.65;2.33;;;;;;;15.99;78.68;95841.69;4906235;29;20048;-78
2023/08/06 03:58:53;;;;;;;2.50;2.30;;;;;;;15.99;78.95;95844.31;4906577;29;20091;-78
2023/08/06 04:01:21;;;;;;;2.97;1.92;;;;;;;15.99;78.14;95841.69;4905719;29;20052;-78
2023/08/06 04:03:48;;;;;;;2.35;2.17;;;;;;;15.99;79.36;95839.03;4905368;29;20522;-78
2023/08/06 04:06:16;;;;;;;2.35;2.00;;;;;;;15.99;78.66;95838.25;4905276;29;20056;-78
2023/08/06 04:08:44;;;;;;;3.10;2.47;;;;;;;16.00;78.80;95834.56;4906054;29;20052;-78
2023/08/06 04:11:13;;;;;;;2.05;1.85;;;;;;;15.99;78.77;95831.16;4905986;29;20346;-78
2023/08/06 04:13:43;;;;;;;1.98;1.88;;;;;;;15.97;78.62;95840.31;4905778;29;20108;-78
2023/08/06 04:16:11;;;;;;;3.55;2.40;;;;;;;15.93;79.02;95834.72;4904702;29;20056;-78
2023/08/06 04:18:38;;;;;;;2.50;2.25;;;;;;;15.92;77.41;95835.75;4904096;29;20153;-78
2023/08/06 04:21:06;;;;;;;2.17;1.90;;;;;;;15.84;76.74;95830.88;4904242;29;20083;-78
2023/08/06 04:23:34;;;;;;;3.15;2.10;;;;;;;15.80;78.29;95829.72;4905936;29;20464;-78
2023/08/06 04:26:01;;;;;;;4.07;2.33;;;;;;;15.79;77.72;95826.31;4905053;29;20052;-78
2023/08/06 04:28:31;;;;;;;2.85;2.60;;;;;;;15.75;77.66;95829.63;4902960;29;20056;-78
2023/08/06 04:31:00;;;;;;;2.65;2.30;;;;;;;15.71;77.24;95833.72;4904900;29;20117;-78
2023/08/06 04:33:27;;;;;;;7.20;2.47;;;;;;;15.64;77.06;95829.41;4913717;29;20056;-78
2023/08/06 04:35:56;;;;;;;3.00;2.33;;;;;;;15.58;76.90;95832.16;4922375;29;20040;-78
2023/08/06 04:38:25;;;;;;;3.67;2.00;;;;;;;15.54;76.92;95829.19;4915254;29;20427;-78
2023/08/06 04:40:53;;;;;;;3.47;1.92;;;;;;;15.53;78.04;95824.19;4904650;29;20085;-78
2023/08/06 04:43:21;;;;;;;3.15;1.67;;;;;;;15.56;77.27;95831.59;4905317;29;20048;-78
2023/08/06 04:45:50;;;;;;;5.88;2.65;;;;;;;15.57;78.63;95818.22;4913956;29;20048;-78
2023/08/06 04:48:18;;;;;;;2.17;1.95;;;;;;;15.60;78.49;95823.00;4919848;29;20063;-78
2023/08/06 04:50:47;;;;;;;3.05;2.15;;;;;;;15.62;78.34;95822.78;4910752;29;20112;-78
2023/08/06 04:53:15;;;;;;;3.63;2.13;;;;;;;15.62;77.21;95823.56;4905567;29;20045;-78
2023/08/06 04:55:43;;;;;;;2.38;1.88;;;;;;;15.64;77.51;95829.41;4906192;29;20434;-78
2023/08/06 04:58:11;;;;;;;2.15;1.95;;;;;;;15.69;78.52;95827.91;4906281;29;20048;-78
2023/08/06 05:00:39;;;;;;;1.60;1.50;;;;;;;15.74;78.32;95828.84;4905468;29;20048;-78
2023/08/06 05:03:08;;;;;;;1.70;1.60;;;;;;;15.80;79.65;95832.34;4905935;29;20059;-78
2023/08/06 05:05:35;;;;;;;3.35;2.10;;;;;;;15.86;80.42;95831.44;4905862;29;20056;-78
2023/08/06 05:08:03;;;;;;;2.60;1.90;;;;;;;15.86;77.37;95826.16;4905885;29;20461;-78
2023/08/06 05:10:31;;;;;;;2.08;1.77;;;;;;;15.88;77.99;95824.09;4903164;29;20503;-78
2023/08/06 05:12:58;;;;;;;3.58;1.58;;;;;;;15.91;77.63;95822.84;4906012;29;20044;-78
2023/08/06 05:15:26;;;;;;;1.50;1.40;;;;;;;15.91;76.51;95828.88;4903784;29;20052;-78
2023/08/06 05:17:54;;;;;;;2.78;1.73;;;;;;;15.91;76.26;95828.09;4905039;29;20057;-78
2023/08/06 05:20:23;;;;;;;1.98;1.55;;;;;;;15.95;79.41;95832.66;4903611;29;20068;-78
2023/08/06 05:22:51;;;;;;;2.67;1.90;;;;;;;15.94;77.25;95828.44;4903102;29;20076;-78
2023/08/06 05:25:18;;;;;;;3.22;2.13;;;;;;;15.93;77.68;95832.09;4904000;29;20048;-78
2023/08/06 05:27:46;;;;;;;2.42;2.10;;;;;;;15.93;77.64;95826.81;4904032;29;20124;-78
2023/08/06 05:30:14;;;;;;;2.10;1.30;;;;;;;15.89;75.17;95827.53;4903576;29;20080;-78
2023/08/06 05:32:41;;;;;;;1.92;1.42;;;;;;;15.85;75.17;95819.28;4904910;29;20053;-78
2023/08/06 05:35:09;;;;;;;3.55;2.20;;;;;;;15.89;77.42;95828.31;4904143;29;20059;-78
2023/08/06 05:37:38;;;;;;;2.63;1.83;;;;;;;15.93;78.07;95821.56;4904720;29;20424;-78
2023/08/06 05:40:07;;;;;;;1.98;1.60;;;;;;;15.92;76.17;95827.06;4903604;29;20049;-78
2023/08/06 05:42:34;;;;;;;4.40;1.75;;;;;;;15.96;78.54;95841.34;4904931;29;20053;-78
2023/08/06 05:45:02;;;;;;;1.65;1.55;;;;;;;15.97;76.85;95833.22;4904794;29;20053;-78
2023/08/06 05:47:30;;;;;;;2.00;1.50;;;;;;;15.99;76.47;95835.63;4904660;29;20128;-78
2023/08/06 05:49:57;;;;;;;2.17;1.92;;;;;;;15.98;78.33;95834.00;4904265;29;20096;-78
2023/08/06 05:52:25;;;;;;;2.28;1.70;;;;;;;15.96;78.60;95831.63;4903270;29;20056;-78
2023/08/06 05:54:55;;;;;;;4.80;1.95;;;;;;;15.91;78.47;95834.16;4903651;29;20135;-78
2023/08/06 05:57:22;;;;;;;2.47;1.60;;;;;;;15.91;77.96;95834.16;4905669;29;20063;-78
2023/08/06 05:59:50;;;;;;;2.13;1.38;;;;;;;15.95;79.81;95835.28;4904843;29;20507;-78
2023/08/06 06:02:18;;;;;;;3.85;1.63;;;;;;;16.00;77.50;95831.94;4904265;29;20077;-78
2023/08/06 06:04:46;;;;;;;1.45;1.35;;;;;;;16.02;77.53;95829.88;4904208;29;20059;-78
2023/08/06 06:07:14;;;;;;;2.75;1.65;;;;;;;16.12;78.83;95831.91;4904552;29;20076;-78
2023/08/06 06:09:41;;;;;;;1.83;1.50;;;;;;;16.20;79.68;95842.03;4905183;29;20060;-78
2023/08/06 06:12:11;;;;;;;1.63;1.20;;;;;;;16.24;80.08;95845.81;4904761;29;20057;-78
2023/08/06 06:14:38;;;;;;;1.50;1.13;;;;;;;16.24;79.38;95838.69;4903800;29;20080;-78
2023/08/06 06:17:06;;;;;;;1.42;0.90;;;;;;;16.20;77.01;95842.88;4905125;29;20449;-78
2023/08/06 06:19:34;;;;;;;1.77;1.00;;;;;;;16.17;78.49;95845.16;4905284;29;20052;-78
2023/08/06 06:22:01;;;;;;;1.23;0.90;;;;;;;16.15;79.28;95852.47;4903651;29;20086;-78
2023/08/06 06:24:30;;;;;;;2.33;0.88;;;;;;;16.12;77.89;95850.34;4905050;29;20081;-78
2023/08/06 06:26:57;;;;;;;2.00;0.85;;;;;;;16.09;77.43;95854.22;4905762;29;20060;-78
2023/08/06 06:29:26;;;;;;;1.63;0.63;;;;;;;16.05;77.04;95847.84;4904823;29;20079;-78
2023/08/06 06:31:54;;;;;;;1.23;1.13;;;;;;;16.03;77.38;95848.06;4905230;29;20068;-78
2023/08/06 06:34:22;;;;;;;1.02;0.80;;;;;;;16.03;78.08;95850.69;4905273;29;20076;-78
2023/08/06 06:36:50;;;;;;;4.22;1.05;;;;;;;16.06;78.65;95852.84;4904664;29;20116;-78
2023/08/06 06:39:19;;;;;;;1.98;0.82;;;;;;;16.10;78.96;95849.78;4904792;29;20502;-78
2023/08/06 06:41:46;;;;;;;1.00;0.95;;;;;;;16.13;79.14;95849.28;4904295;29;20077;-78
2023/08/06 06:44:14;;;;;;;1.33;0.65;;;;;;;16.12;77.48;95850.34;4901682;29;20112;-78
2023/08/06 06:46:43;;;;;;;1.02;0.85;;;;;;;16.14;78.34;95858.78;4900162;29;20470;-78
2023/08/06 06:49:11;;;;;;;3.15;1.67;;;;;;;16.19;78.34;95845.72;4900103;29;20052;-78
2023/08/06 06:51:39;;;;;;;1.35;1.00;;;;;;;16.23;78.96;95852.13;4899083;29;20518;-78
2023/08/06 06:54:07;;;;;;;2.95;1.00;;;;;;;16.24;77.72;95848.44;4899167;29;20048;-78
2023/08/06 06:56:34;;;;;;;2.15;0.73;;;;;;;16.25;76.22;95856.09;4899983;29;20075;-78
2023/08/06 06:59:02;;;;;;;2.50;0.50;;;;;;;16.24;76.92;95848.44;4899634;29;20052;-78
2023/08/06 07:01:30;;;;;;;1.15;0.70;;;;;;;16.25;76.47;95847.41;4893487;29;20499;-78
2023/08/06 07:03:59;;;;;;;1.85;0.82;;;;;;;16.29;78.38;95856.44;4879609;29;20049;-80
2023/08/06 07:06:27;;;;;;;1.15;0.82;;;;;;;16.30;78.39;95847.50;4894342;29;20053;-78
2023/08/06 07:08:54;;;;;;;2.05;0.63;;;;;;;16.33;76.89;95846.22;4886765;29;20101;-78
2023/08/06 07:11:22;;;;;;;0.60;0.60;;;;;;;16.32;78.18;95848.06;4883515;29;20447;-78
2023/08/06 07:13:56;;;;;;;1.83;0.70;;;;;;;16.32;76.72;95848.06;4897959;29;20085;-78
2023/08/06 07:16:24;;;;;;;2.15;0.70;;;;;;;16.35;77.61;95847.56;4900848;29;20076;-78
2023/08/06 07:18:53;;;;;;;2.35;0.70;;;;;;;16.38;75.88;95854.22;4882443;29;20431;-78
2023/08/06 07:21:22;;;;;;;1.65;0.65;;;;;;;16.39;77.17;95840.00;4885229;29;20053;-78
2023/08/06 07:23:49;;;;;;;1.42;0.70;;;;;;;16.37;75.30;95842.09;4888709;29;20081;-78
2023/08/06 07:26:17;;;;;;;1.15;0.68;;;;;;;16.36;76.91;95849.19;4886236;29;20053;-78
2023/08/06 07:28:45;;;;;;;0.60;0.50;;;;;;;16.38;77.69;95855.03;4886088;29;20052;-78
2023/08/06 07:31:13;;;;;;;0.65;0.45;;;;;;;16.40;77.93;95860.06;4894450;29;20044;-78
2023/08/06 07:33:40;;;;;;;1.45;0.55;;;;;;;16.41;77.42;95862.44;4891468;29;20045;-78
2023/08/06 07:36:09;;;;;;;0.60;0.50;;;;;;;16.40;75.04;95867.94;4904887;29;20041;-78
2023/08/06 07:38:39;;;;;;;1.85;0.40;;;;;;;16.42;76.44;95861.41;4901747;29;20049;-78
2023/08/06 07:41:06;;;;;;;1.73;0.63;;;;;;;16.47;75.79;95863.34;4904578;29;20522;-78
2023/08/06 07:43:35;;;;;;;0.77;0.60;;;;;;;16.52;77.45;95859.97;4900643;29;20049;-78
2023/08/06 07:46:03;;;;;;;3.05;0.75;;;;;;;16.57;77.45;95862.69;4897745;29;20053;-77
2023/08/06 07:48:31;;;;;;;1.52;0.55;;;;;;;16.57;76.54;95868.75;4886669;29;20061;-78
2023/08/06 07:50:59;;;;;;;0.60;0.40;;;;;;;16.51;76.40;95871.53;4893037;29;20094;-77
2023/08/06 07:53:29;;;;;;;1.50;1.10;;;;;;;16.46;75.91;95873.06;4905289;29;20100;-78
2023/08/06 07:55:58;;;;;;;0.60;0.40;;;;;;;16.44;76.05;95867.25;4906825;29;20135;-78
2023/08/06 07:58:26;;;;;;;0.68;0.60;;;;;;;16.50;76.51;95862.06;4920149;29;20081;-78
2023/08/06 08:00:54;;;;;;;1.55;0.40;;;;;;;16.52;77.07;95865.25;4911171;29;20053;-78
2023/08/06 08:03:21;;;;;;;0.82;0.30;;;;;;;16.55;76.65;95870.03;4891960;29;20052;-78
2023/08/06 08:05:49;;;;;;;0.63;0.30;;;;;;;16.59;76.79;95861.41;4896410;29;20049;-78
2023/08/06 08:08:17;;;;;;;0.70;0.30;;;;;;;16.62;75.05;95857.53;4904774;29;20048;-78
2023/08/06 08:10:45;;;;;;;0.32;0.32;;;;;;;16.65;75.29;95865.75;4888366;29;20097;-78
2023/08/06 08:13:14;;;;;;;2.28;0.20;;;;;;;16.72;75.96;95859.53;4884877;29;20049;-77
2023/08/06 08:15:41;;;;;;;0.20;0.20;;;;;;;16.76;73.73;95861.44;4889347;29;20044;-78
2023/08/06 08:18:09;;;;;;;0.70;0.22;;;;;;;16.77;73.90;95863.06;4883557;29;20105;-77
2023/08/06 08:20:37;;;;;;;0.35;0.20;;;;;;;16.78;75.48;95864.63;4901849;29;20053;-78
2023/08/06 08:23:05;;;;;;;3.05;0.20;;;;;;;16.75;74.79;95870.38;4910078;29;20107;-78
2023/08/06 08:25:34;;;;;;;1.10;0.47;;;;;;;16.71;75.03;95879.00;4905302;29;20121;-78
2023/08/06 08:28:01;;;;;;;1.27;0.10;;;;;;;16.67;73.98;95865.50;4886475;29;20518;-77
2023/08/06 08:30:30;;;;;;;1.33;0.10;;;;;;;16.64;72.21;95876.53;4898951;29;20110;-78
2023/08/06 08:32:58;;;;;;;2.20;0.10;;;;;;;16.61;74.00;95866.44;4899681;29;20095;-78
2023/08/06 08:35:26;;;;;;;0.10;0.00;;;;;;;16.60;74.36;95872.78;4897001;29;20468;-78
2023/08/06 08:37:54;;;;;;;0.75;0.25;;;;;;;16.61;74.98;95871.72;4880894;29;20119;-78
2023/08/06 08:40:28;;;;;;;0.22;0.22;;;;;;;16.61;73.34;95872.50;4899553;29;20064;-76
2023/08/06 08:43:00;;;;;;;3.20;2.38;;;;;;;16.63;75.37;95878.34;4900568;29;20055;-78
2023/08/06 08:45:35;;;;;;;1.17;0.77;;;;;;;16.71;74.52;95874.53;4896588;29;20044;-77
2023/08/06 08:48:03;;;;;;;0.47;0.30;;;;;;;16.75;72.15;95873.03;4882569;29;20483;-77
2023/08/06 08:50:31;;;;;;;1.55;1.05;;;;;;;16.77;72.96;95876.22;4899088;29;20419;-77
2023/08/06 08:52:59;;;;;;;1.75;0.60;;;;;;;16.80;73.58;95872.34;4896744;29;20049;-76
2023/08/06 08:55:27;;;;;;;1.65;0.77;;;;;;;16.84;73.48;95873.47;4898554;29;20467;-77
2023/08/06 08:57:54;;;;;;;0.30;0.30;;;;;;;16.84;72.55;95868.19;4894934;29;20049;-77
2023/08/06 09:00:22;;;;;;;0.93;0.20;;;;;;;16.82;73.31;95871.06;4882167;29;20065;-77
2023/08/06 09:02:52;;;;;;;3.92;1.60;;;;;;;16.79;70.56;95875.97;4897457;29;20052;-77
2023/08/06 09:05:21;;;;;;;0.50;0.30;;;;;;;16.75;72.03;95870.38;4897036;29;20104;-77
2023/08/06 09:07:50;;;;;;;0.10;0.10;;;;;;;16.75;72.24;95874.84;4896307;29;20080;-77
2023/08/06 09:10:18;;;;;;;0.15;0.10;;;;;;;16.72;71.37;95876.13;4896441;29;20048;-77
2023/08/06 09:12:47;;;;;;;0.77;0.30;;;;;;;16.71;72.55;95869.25;4899204;29;20077;-72
2023/08/06 09:15:15;;;;;;;2.72;0.85;;;;;;;16.72;72.47;95873.47;4887508;29;20052;-71
2023/08/06 09:17:43;;;;;;;0.50;0.30;;;;;;;16.73;72.60;95876.94;4897280;29;20056;-71
2023/08/06 09:20:14;;;;;;;1.10;0.10;;;;;;;16.73;72.87;95887.47;4884498;29;20087;-71
2023/08/06 09:22:42;;;;;;;0.30;0.22;;;;;;;16.71;72.95;95879.81;4896097;29;20060;-71
2023/08/06 09:25:10;;;;;;;1.05;0.20;;;;;;;16.67;71.68;95873.41;4895003;29;20055;-71
2023/08/06 09:27:38;;;;;;;3.13;1.98;;;;;;;16.63;73.51;95874.91;4895582;29;20088;-71
2023/08/06 09:30:08;;;;;;;54.10;35.25;;;;;;;16.62;74.01;95871.50;4897804;29;20059;-71
2023/08/06 09:32:51;;;;;;;2.83;2.03;;;;;;;16.71;74.95;95873.75;4896699;29;20112;-72
2023/08/06 09:35:20;;;;;;;0.40;0.35;;;;;;;16.76;74.09;95877.25;4896977;29;20048;-71
2023/08/06 09:37:47;;;;;;;0.43;0.20;;;;;;;16.82;73.30;95876.31;4881589;29;20048;-71
2023/08/06 09:40:27;;;;;;;0.77;0.10;;;;;;;16.86;73.82;95879.28;4897476;29;20696;-71
2023/08/06 09:42:55;;;;;;;0.10;0.10;;;;;;;16.84;72.36;95868.97;4895733;29;20049;-71
2023/08/06 09:45:23;;;;;;;0.38;0.10;;;;;;;16.82;73.97;95865.78;4897261;29;20136;-77
2023/08/06 09:47:51;;;;;;;0.55;0.15;;;;;;;16.82;73.82;95891.34;4891370;29;20511;-77
2023/08/06 09:50:21;;;;;;;14.38;8.77;;;;;;;16.80;74.34;95877.59;4879063;29;20049;-77
2023/08/06 09:52:48;;;;;;;0.30;0.30;;;;;;;16.76;73.71;95887.78;4896771;29;20052;-76
2023/08/06 09:55:16;;;;;;;0.20;0.20;;;;;;;16.77;72.25;95878.84;4898118;29;20091;-76
2023/08/06 09:57:44;;;;;;;0.32;0.00;;;;;;;16.77;72.44;95875.41;4893858;29;20762;-78
2023/08/06 10:00:13;;;;;;;0.10;0.00;;;;;;;16.81;72.19;95864.19;4893088;29;20567;-78
2023/08/06 10:02:41;;;;;;;0.08;0.00;;;;;;;16.96;72.91;95865.47;4897479;29;20053;-76
2023/08/06 10:05:09;;;;;;;0.28;0.28;;;;;;;17.14;72.58;95865.22;4895152;29;20084;-77
2023/08/06 10:07:39;;;;;;;0.15;0.10;;;;;;;17.36;72.05;95860.00;4893932;29;20053;-76
2023/08/06 10:10:08;;;;;;;0.60;0.30;;;;;;;17.49;71.93;95883.41;4891183;29;20053;-79
2023/08/06 10:12:40;;;;;;;1.08;0.00;;;;;;;17.61;70.62;95883.28;4892070;29;20069;-78
2023/08/06 10:15:12;;;;;;;1.02;0.15;;;;;;;17.68;69.19;95880.47;4912790;29;20052;-78
2023/08/06 10:17:41;;;;;;;0.10;0.00;;;;;;;17.66;68.18;95872.00;4906899;29;20048;-78
2023/08/06 10:20:18;;;;;;;0.00;0.00;;;;;;;17.62;70.12;95876.97;4891069;29;20057;-78
2023/08/06 10:23:02;;;;;;;0.00;0.00;;;;;;;17.56;68.60;95869.22;4899657;29;20056;-78
2023/08/06 10:25:34;;;;;;;68.10;41.55;;;;;;;17.48;70.95;95871.25;4895730;29;20094;-78
2023/08/06 10:28:09;;;;;;;4.10;2.55;;;;;;;17.41;70.87;95873.25;4884435;29;20053;-77
2023/08/06 10:30:43;;;;;;;0.88;0.30;;;;;;;17.40;71.25;95874.28;4882893;29;20124;-78
2023/08/06 10:33:11;;;;;;;0.30;0.10;;;;;;;17.43;72.00;95873.81;4885735;29;20464;-76
2023/08/06 10:35:43;;;;;;;0.13;0.13;;;;;;;17.48;72.68;95881.00;4896812;29;20445;-78
2023/08/06 10:38:15;;;;;;;0.32;0.10;;;;;;;17.46;70.76;95875.94;4899845;29;20037;-78
2023/08/06 10:40:49;;;;;;;0.30;0.15;;;;;;;17.44;70.38;95879.88;4889085;29;20049;-78
2023/08/06 10:43:26;;;;;;;0.35;0.15;;;;;;;17.43;69.65;95865.13;4889468;29;20044;-79
2023/08/06 10:46:04;;;;;;;0.00;0.00;;;;;;;17.49;71.67;95864.13;4889945;29;20049;-77
2023/08/06 10:48:34;;;;;;;0.00;0.00;;;;;;;17.48;70.42;95865.16;4890446;29;20053;-78
2023/08/06 10:51:02;;;;;;;0.20;0.10;;;;;;;17.47;72.06;95876.75;4892311;29;20099;-76
2023/08/06 10:53:31;;;;;;;0.00;0.00;;;;;;;17.45;73.32;95881.50;4885446;29;20052;-77
2023/08/06 10:56:01;;;;;;;1.40;0.15;;;;;;;17.36;71.37;95881.09;4895299;29;20056;-77
2023/08/06 10:58:32;;;;;;;0.90;0.10;;;;;;;17.25;72.80;95876.69;4895838;29;20594;-77
2023/08/06 11:01:00;;;;;;;0.10;0.00;;;;;;;17.17;72.15;95875.28;4891679;29;20109;-76
2023/08/06 11:03:28;;;;;;;0.17;0.00;;;;;;;17.16;72.75;95871.03;4878634;29;20045;-77
2023/08/06 11:05:56;;;;;;;0.10;0.10;;;;;;;17.20;72.88;95869.53;4878743;29;20472;-77
2023/08/06 11:08:25;;;;;;;12.60;7.55;;;;;;;17.19;73.34;95859.25;4885341;29;20144;-76
2023/08/06 11:10:54;;;;;;;8.00;4.82;;;;;;;17.12;74.70;95864.69;4895858;29;20048;-77
2023/08/06 11:13:31;;;;;;;1.70;0.70;;;;;;;17.02;74.16;95864.50;4891679;29;20084;-77
2023/08/06 11:15:59;;;;;;;2.90;1.25;;;;;;;16.86;74.94;95869.53;4893206;29;20037;-78
2023/08/06 11:18:30;;;;;;;1.20;0.80;;;;;;;16.74;75.14;95868.00;4913345;29;20044;-79
2023/08/06 11:20:59;;;;;;;0.52;0.22;;;;;;;16.67;74.80;95862.88;4895675;29;20056;-78
2023/08/06 11:23:28;;;;;;;0.90;0.55;;;;;;;16.63;76.77;95880.97;4898565;29;20049;-78
2023/08/06 11:25:58;;;;;;;1.33;0.40;;;;;;;16.61;75.44;95887.53;4900741;29;20041;-78
2023/08/06 11:28:26;;;;;;;0.50;0.50;;;;;;;16.60;76.72;95891.19;4903917;29;20044;-78
2023/08/06 11:30:55;;;;;;;1.58;0.03;;;;;;;16.53;75.09;95887.91;4908660;29;20052;-78
2023/08/06 11:33:25;;;;;;;0.50;0.30;;;;;;;16.48;76.38;95880.72;4889771;29;20057;-77
2023/08/06 11:35:53;;;;;;;0.55;0.20;;;;;;;16.68;76.68;95867.91;4885773;29;20053;-78
2023/08/06 11:38:21;;;;;;;0.85;0.00;;;;;;;16.92;76.55;95872.25;4881182;29;20074;-78
2023/08/06 11:40:48;;;;;;;0.52;0.10;;;;;;;17.06;75.17;95869.06;4896428;29;20055;-77
2023/08/06 11:43:19;;;;;;;0.28;0.10;;;;;;;17.22;75.56;95877.97;4894986;29;20053;-77
2023/08/06 11:49:00;;;;;;;0.38;0.10;;;;;;;17.41;74.46;95861.91;4684810;23;20084;-77
2023/08/06 11:51:29;;;;;;;0.77;0.30;;;;;;;17.40;74.97;95857.66;4881242;29;20104;-76
2023/08/06 11:53:56;;;;;;;0.10;0.10;;;;;;;17.36;74.45;95870.56;4888396;29;20044;-76
2023/08/06 11:56:26;;;;;;;1.25;0.10;;;;;;;17.34;74.68;95880.53;4900373;29;20084;-77
2023/08/06 11:58:55;;;;;;;0.20;0.10;;;;;;;17.26;72.81;95873.84;4898118;29;20049;-76
2023/08/06 12:01:22;;;;;;;0.00;0.00;;;;;;;17.15;74.39;95880.00;4894901;29;20115;-77
2023/08/06 12:03:50;;;;;;;0.15;0.15;;;;;;;17.08;73.81;95887.28;4896221;29;20049;-76
2023/08/06 12:06:18;;;;;;;0.22;0.17;;;;;;;16.96;73.68;95892.59;4888096;29;20053;-77
2023/08/06 12:08:46;;;;;;;0.98;0.38;;;;;;;16.80;74.71;95901.31;4864940;29;20057;-76
2023/08/06 12:11:13;;;;;;;0.73;0.10;;;;;;;16.64;74.36;95916.81;4872241;29;20112;-77
2023/08/06 12:13:42;;;;;;;0.95;0.32;;;;;;;16.58;75.26;95916.97;4880224;29;20062;-77
2023/08/06 12:16:11;;;;;;;0.68;0.30;;;;;;;16.59;74.37;95918.56;4881002;29;20105;-76
2023/08/06 12:18:38;;;;;;;0.40;0.25;;;;;;;16.59;74.21;95916.72;4881003;29;20057;-76
2023/08/06 12:21:06;;;;;;;2.22;0.70;;;;;;;16.63;74.95;95932.84;4877331;29;20049;-76
2023/08/06 12:23:34;;;;;;;0.80;0.15;;;;;;;16.63;73.46;95927.56;4865124;29;20572;-78
2023/08/06 12:26:02;;;;;;;0.90;0.30;;;;;;;16.62;73.55;95915.47;4873508;29;20105;-77
2023/08/06 12:28:29;;;;;;;0.77;0.20;;;;;;;16.64;74.57;95942.34;4887684;29;20120;-78
2023/08/06 12:30:57;;;;;;;1.10;0.40;;;;;;;16.60;74.45;95925.44;4878837;29;20457;-77
2023/08/06 12:33:26;;;;;;;1.30;0.30;;;;;;;16.53;73.00;95925.56;4880311;29;20064;-76
2023/08/06 12:35:54;;;;;;;0.20;0.20;;;;;;;16.48;73.68;95926.25;4880270;29;20053;-77
2023/08/06 12:38:22;;;;;;;0.40;0.30;;;;;;;16.45;73.29;95923.31;4880896;29;20057;-77
2023/08/06 12:40:50;;;;;;;0.40;0.40;;;;;;;16.45;74.33;95933.84;4880376;29;20101;-77
2023/08/06 12:43:18;;;;;;;0.50;0.40;;;;;;;16.43;74.03;95938.53;4879715;29;20061;-77
2023/08/06 12:45:46;;;;;;;0.25;0.20;;;;;;;16.40;74.32;95945.06;4875390;29;20056;-76
2023/08/06 12:48:14;;;;;;;0.20;0.20;;;;;;;16.34;73.04;95956.53;4861773;29;20465;-78
2023/08/06 12:50:43;;;;;;;0.22;0.22;;;;;;;16.31;71.93;95975.44;4866452;29;20054;-78
2023/08/06 12:53:10;;;;;;;0.35;0.35;;;;;;;16.25;72.82;95969.25;4878781;29;20057;-78
2023/08/06 12:55:40;;;;;;;0.60;0.60;;;;;;;16.23;73.12;95968.69;4874069;29;20132;-77
2023/08/06 12:58:08;;;;;;;0.57;0.47;;;;;;;16.24;73.03;95975.53;4874291;29;20519;-79
2023/08/06 13:00:35;;;;;;;1.45;0.30;;;;;;;16.16;72.36;95980.38;4877057;29;20049;-78
2023/08/06 13:03:03;;;;;;;0.90;0.55;;;;;;;16.03;74.15;95982.22;4860772;29;20420;-78